Time;durP1;ratioP1;P1;durP2;ratioP2;P2;SDS_P1;SDS_P2;PMS_P1;PMS_P2;Temp;Humidity;BMP_temperature;BMP_pressure;BME280_temperature;BME280_humidity;BME280_pressure;Samples;Min_cycle;Max_cycle;Signal;HPM_P1;HPM_P2
2021/09/17 00:00:02;;;;;;;5.57;3.70;;;;;;;;;;5029007;28;20042;-62
2021/09/17 00:02:28;;;;;;;5.85;4.72;;;;;;;;;;5020094;28;20053;-63
2021/09/17 00:04:55;;;;;;;7.20;4.63;;;;;;;;;;5026723;28;20045;-62
2021/09/17 00:07:22;;;;;;;9.25;4.97;;;;;;;;;;5024638;28;20366;-63
2021/09/17 00:09:49;;;;;;;6.47;4.65;;;;;;;;;;5024860;28;20143;-63
2021/09/17 00:12:15;;;;;;;5.82;4.72;;;;;;;;;;5024850;28;20068;-63
2021/09/17 00:14:42;;;;;;;8.20;5.05;;;;;;;;;;5025208;28;20186;-63
2021/09/17 00:17:08;;;;;;;5.88;4.68;;;;;;;;;;5019962;28;20471;-63
2021/09/17 00:19:36;;;;;;;;;;;;;;;;;;5025311;28;20088;-62
2021/09/17 00:22:02;;;;;;;6.68;4.85;;;;;;;;;;5027002;28;20016;-62
2021/09/17 00:24:29;;;;;;;8.37;4.87;;;;;;;;;;5023963;28;20045;-62
2021/09/17 00:26:56;;;;;;;5.65;4.38;;;;;;;;;;5021923;28;20054;-63
2021/09/17 00:29:22;;;;;;;8.27;5.10;;;;;;;;;;5018723;28;20129;-62
2021/09/17 00:31:49;;;;;;;10.30;4.90;;;;;;;;;;5023522;28;20124;-63
2021/09/17 00:34:15;;;;;;;6.77;5.13;;;;;;;;;;5026120;28;20687;-63
2021/09/17 00:36:42;;;;;;;6.32;4.80;;;;;;;;;;5023363;28;20207;-62
2021/09/17 00:39:13;;;;;;;6.32;4.50;;;;;;;;;;5022724;28;20556;-63
2021/09/17 00:41:40;;;;;;;9.18;4.28;;;;;;;;;;5025525;28;20124;-63
2021/09/17 00:44:07;;;;;;;6.25;4.38;;;;;;;;;;5022805;28;20580;-63
2021/09/17 00:46:33;;;;;;;7.63;4.30;;;;;;;;;;5021064;28;20737;-63
2021/09/17 00:49:00;;;;;;;8.27;4.05;;;;;;;;;;5024782;28;20605;-62
2021/09/17 00:51:27;;;;;;;7.05;4.18;;;;;;;;;;5026348;28;20128;-63
2021/09/17 00:53:53;;;;;;;5.50;4.43;;;;;;;;;;5025403;28;20080;-63
2021/09/17 00:56:20;;;;;;;6.05;4.55;;;;;;;;;;5022233;28;20141;-62
2021/09/17 00:58:47;;;;;;;6.70;4.25;;;;;;;;;;5020606;28;20049;-62
2021/09/17 01:01:13;;;;;;;7.28;4.07;;;;;;;;;;5024582;28;20133;-62
2021/09/17 01:03:41;;;;;;;7.68;3.97;;;;;;;;;;5024939;28;20103;-62
2021/09/17 01:06:08;;;;;;;5.38;4.30;;;;;;;;;;5027329;28;20156;-62
2021/09/17 01:08:35;;;;;;;6.95;4.28;;;;;;;;;;5019073;28;20152;-62
2021/09/17 01:11:02;;;;;;;6.88;4.47;;;;;;;;;;5030319;28;20128;-62
2021/09/17 01:13:29;;;;;;;6.13;3.77;;;;;;;;;;5020963;28;20133;-63
2021/09/17 01:15:55;;;;;;;6.00;3.97;;;;;;;;;;5020943;28;20473;-63
2021/09/17 01:18:22;;;;;;;7.17;5.00;;;;;;;;;;5022297;28;20580;-62
2021/09/17 01:20:48;;;;;;;7.05;4.63;;;;;;;;;;5026272;28;20456;-63
2021/09/17 01:23:15;;;;;;;5.68;4.50;;;;;;;;;;5028407;28;20144;-63
2021/09/17 01:25:41;;;;;;;5.10;4.18;;;;;;;;;;5025086;28;20152;-63
2021/09/17 01:28:08;;;;;;;6.40;4.20;;;;;;;;;;5023356;28;20074;-62
2021/09/17 01:30:34;;;;;;;6.07;4.38;;;;;;;;;;5022569;28;20057;-63
2021/09/17 01:33:01;;;;;;;4.72;3.83;;;;;;;;;;5022982;28;20531;-62
2021/09/17 01:35:27;;;;;;;4.90;3.75;;;;;;;;;;5019518;28;20136;-62
2021/09/17 01:37:54;;;;;;;9.45;4.65;;;;;;;;;;5022135;28;20067;-62
2021/09/17 01:40:21;;;;;;;6.15;4.50;;;;;;;;;;5024262;28;20132;-63
2021/09/17 01:42:48;;;;;;;5.45;4.15;;;;;;;;;;5020440;28;20077;-62
2021/09/17 01:45:14;;;;;;;6.45;4.70;;;;;;;;;;5019763;28;20051;-63
2021/09/17 01:47:41;;;;;;;6.03;4.47;;;;;;;;;;5024111;28;20136;-63
2021/09/17 01:50:08;;;;;;;5.38;4.22;;;;;;;;;;5020449;28;20715;-62
2021/09/17 01:52:38;;;;;;;9.70;4.60;;;;;;;;;;5016648;28;20136;-62
2021/09/17 01:55:05;;;;;;;7.25;4.28;;;;;;;;;;5026419;28;20085;-62
2021/09/17 01:57:31;;;;;;;7.07;3.80;;;;;;;;;;5019193;28;20053;-63
2021/09/17 01:59:58;;;;;;;8.45;4.22;;;;;;;;;;5023086;28;20486;-62
2021/09/17 02:02:26;;;;;;;5.40;4.30;;;;;;;;;;5022101;28;20129;-63
2021/09/17 02:04:56;;;;;;;6.15;4.10;;;;;;;;;;5023953;28;20501;-63
2021/09/17 02:07:23;;;;;;;7.28;4.45;;;;;;;;;;5025644;28;20100;-63
2021/09/17 02:09:49;;;;;;;5.88;4.10;;;;;;;;;;5022487;28;20511;-63
2021/09/17 02:12:16;;;;;;;7.87;4.23;;;;;;;;;;5018646;28;20081;-63
2021/09/17 02:14:42;;;;;;;6.97;3.92;;;;;;;;;;5019280;28;20076;-62
2021/09/17 02:17:09;;;;;;;6.43;3.47;;;;;;;;;;5026780;28;20061;-62
2021/09/17 02:19:36;;;;;;;4.90;3.90;;;;;;;;;;5026463;28;20168;-62
2021/09/17 02:22:02;;;;;;;6.35;4.20;;;;;;;;;;5021511;28;20152;-62
2021/09/17 02:24:29;;;;;;;6.47;4.40;;;;;;;;;;5023032;28;20108;-62
2021/09/17 02:26:56;;;;;;;8.93;4.15;;;;;;;;;;5024798;28;20488;-63
2021/09/17 02:29:22;;;;;;;5.53;3.75;;;;;;;;;;5027729;28;20097;-62
2021/09/17 02:31:49;;;;;;;8.55;4.10;;;;;;;;;;5017487;28;20052;-62
2021/09/17 02:34:15;;;;;;;5.95;4.05;;;;;;;;;;5018070;28;20128;-63
2021/09/17 02:36:41;;;;;;;6.45;4.45;;;;;;;;;;5026644;28;20136;-63
2021/09/17 02:39:11;;;;;;;12.73;4.47;;;;;;;;;;5022017;28;20124;-63
2021/09/17 02:41:38;;;;;;;4.70;3.58;;;;;;;;;;5022301;28;20054;-63
2021/09/17 02:44:05;;;;;;;5.03;3.72;;;;;;;;;;5021064;28;20567;-62
2021/09/17 02:46:31;;;;;;;5.32;4.30;;;;;;;;;;5025322;28;20073;-62
2021/09/17 02:48:58;;;;;;;5.47;3.80;;;;;;;;;;5025554;28;20577;-63
2021/09/17 02:51:24;;;;;;;5.85;4.10;;;;;;;;;;5028290;28;20624;-62
2021/09/17 02:53:51;;;;;;;6.63;3.97;;;;;;;;;;5026240;28;20099;-63
2021/09/17 02:56:18;;;;;;;5.97;3.45;;;;;;;;;;5025788;28;20132;-62
2021/09/17 02:58:44;;;;;;;7.65;3.55;;;;;;;;;;5024600;28;20084;-62
2021/09/17 03:01:11;;;;;;;4.22;3.47;;;;;;;;;;5021397;28;20454;-62
2021/09/17 03:03:38;;;;;;;6.57;3.80;;;;;;;;;;5028190;28;20057;-62
2021/09/17 03:06:05;;;;;;;8.27;3.83;;;;;;;;;;5028268;28;20053;-63
2021/09/17 03:08:31;;;;;;;4.77;3.70;;;;;;;;;;5026317;28;20589;-63
2021/09/17 03:10:58;;;;;;;5.22;3.97;;;;;;;;;;5022782;28;20085;-62
2021/09/17 03:13:25;;;;;;;7.65;4.55;;;;;;;;;;5022843;28;20092;-62
2021/09/17 03:15:52;;;;;;;8.57;4.72;;;;;;;;;;5022741;28;20081;-62
2021/09/17 03:18:18;;;;;;;5.32;4.15;;;;;;;;;;5024378;28;20045;-62
2021/09/17 03:20:47;;;;;;;5.80;3.75;;;;;;;;;;5023103;28;20121;-63
2021/09/17 03:23:15;;;;;;;5.55;3.70;;;;;;;;;;5024689;28;20062;-63
2021/09/17 03:25:41;;;;;;;4.95;3.33;;;;;;;;;;5021894;28;20084;-63
2021/09/17 03:28:07;;;;;;;9.48;4.30;;;;;;;;;;5033050;28;20124;-63
2021/09/17 03:30:34;;;;;;;5.70;3.90;;;;;;;;;;5027341;28;20080;-63
2021/09/17 03:33:01;;;;;;;5.40;4.50;;;;;;;;;;5026598;28;20137;-62
2021/09/17 03:35:27;;;;;;;5.45;4.13;;;;;;;;;;5027251;28;20132;-62
2021/09/17 03:37:54;;;;;;;6.47;4.43;;;;;;;;;;5024330;28;20081;-62
2021/09/17 03:40:21;;;;;;;8.45;4.60;;;;;;;;;;5007365;28;20128;-63
2021/09/17 03:42:47;;;;;;;6.95;4.70;;;;;;;;;;5026762;28;20126;-62
2021/09/17 03:45:14;;;;;;;6.85;4.88;;;;;;;;;;5024677;28;20594;-62
2021/09/17 03:47:40;;;;;;;6.00;4.53;;;;;;;;;;5025588;28;20107;-62
2021/09/17 03:50:07;;;;;;;5.78;4.47;;;;;;;;;;5019577;28;20140;-62
2021/09/17 03:52:34;;;;;;;6.80;4.40;;;;;;;;;;5022264;28;20156;-63
2021/09/17 03:55:02;;;;;;;7.53;4.32;;;;;;;;;;5011944;28;20045;-62
2021/09/17 03:57:29;;;;;;;6.25;4.30;;;;;;;;;;5016250;28;20137;-62
2021/09/17 03:59:56;;;;;;;7.70;4.73;;;;;;;;;;5024299;28;20513;-62
2021/09/17 04:02:22;;;;;;;5.53;4.25;;;;;;;;;;5021824;28;20081;-62
2021/09/17 04:04:49;;;;;;;5.27;4.40;;;;;;;;;;5022575;28;20042;-63
2021/09/17 04:07:15;;;;;;;5.47;3.85;;;;;;;;;;5019779;28;20304;-63
2021/09/17 04:09:42;;;;;;;5.22;4.25;;;;;;;;;;5018998;28;20532;-63
2021/09/17 04:12:08;;;;;;;8.25;5.22;;;;;;;;;;5028468;28;20141;-63
2021/09/17 04:14:35;;;;;;;8.52;4.25;;;;;;;;;;5024433;28;20132;-63
2021/09/17 04:17:02;;;;;;;6.68;4.35;;;;;;;;;;5026955;28;20057;-62
2021/09/17 04:19:28;;;;;;;6.60;4.32;;;;;;;;;;5024312;28;20142;-63
2021/09/17 04:21:55;;;;;;;5.72;4.20;;;;;;;;;;5022009;28;20148;-63
2021/09/17 04:24:22;;;;;;;5.45;4.32;;;;;;;;;;5026108;28;20056;-62
2021/09/17 04:26:48;;;;;;;4.40;3.55;;;;;;;;;;5026820;28;20588;-63
2021/09/17 04:29:15;;;;;;;5.53;3.95;;;;;;;;;;5030199;28;20136;-62
2021/09/17 04:31:42;;;;;;;4.80;3.40;;;;;;;;;;5026457;28;20084;-62
2021/09/17 04:34:08;;;;;;;6.53;4.25;;;;;;;;;;5022616;28;20140;-63
2021/09/17 04:36:35;;;;;;;5.65;3.83;;;;;;;;;;5027541;28;20085;-62
2021/09/17 04:39:01;;;;;;;5.63;4.60;;;;;;;;;;5022244;28;20132;-62
2021/09/17 04:41:28;;;;;;;5.22;4.07;;;;;;;;;;5021392;28;20149;-63
2021/09/17 04:43:54;;;;;;;6.43;4.20;;;;;;;;;;5023996;28;20523;-62
2021/09/17 04:46:21;;;;;;;6.72;4.03;;;;;;;;;;5019531;28;20092;-63
2021/09/17 04:48:47;;;;;;;6.35;4.28;;;;;;;;;;5018164;28;20140;-63
2021/09/17 04:51:14;;;;;;;6.20;4.30;;;;;;;;;;5014855;28;20172;-62
2021/09/17 04:53:41;;;;;;;5.65;3.97;;;;;;;;;;5024224;28;20371;-63
2021/09/17 04:56:07;;;;;;;6.60;4.30;;;;;;;;;;5021093;28;20100;-63
2021/09/17 04:58:42;;;;;;;7.47;4.20;;;;;;;;;;5020168;28;20485;-62
2021/09/17 05:01:09;;;;;;;11.77;4.90;;;;;;;;;;5022090;28;20132;-63
2021/09/17 05:03:36;;;;;;;7.68;4.53;;;;;;;;;;5022505;28;20300;-62
2021/09/17 05:06:02;;;;;;;7.43;4.55;;;;;;;;;;5020332;28;20140;-63
2021/09/17 05:08:29;;;;;;;10.82;5.40;;;;;;;;;;5025520;28;20057;-63
2021/09/17 05:10:56;;;;;;;7.68;4.75;;;;;;;;;;5023803;28;20473;-63
2021/09/17 05:13:23;;;;;;;8.20;5.18;;;;;;;;;;5027422;28;20509;-63
2021/09/17 05:15:49;;;;;;;6.95;5.40;;;;;;;;;;5026861;28;20046;-63
2021/09/17 05:18:16;;;;;;;8.23;4.60;;;;;;;;;;5029371;28;20058;-63
2021/09/17 05:20:43;;;;;;;8.40;5.38;;;;;;;;;;5023550;28;20307;-63
2021/09/17 05:23:09;;;;;;;7.32;4.75;;;;;;;;;;5023003;28;20081;-63
2021/09/17 05:25:36;;;;;;;7.90;5.10;;;;;;;;;;5022573;28;20050;-63
2021/09/17 05:28:02;;;;;;;7.22;5.55;;;;;;;;;;5025135;28;20081;-63
2021/09/17 05:30:29;;;;;;;7.55;5.13;;;;;;;;;;5020182;28;20133;-62
2021/09/17 05:32:56;;;;;;;9.15;5.13;;;;;;;;;;5012430;28;20136;-62
2021/09/17 05:35:22;;;;;;;6.35;4.97;;;;;;;;;;5016577;28;20490;-63
2021/09/17 05:37:49;;;;;;;7.43;5.45;;;;;;;;;;5004400;28;20140;-63
2021/09/17 05:40:16;;;;;;;7.85;6.00;;;;;;;;;;5023348;28;20413;-63
2021/09/17 05:42:42;;;;;;;7.50;5.63;;;;;;;;;;5023176;28;20077;-63
2021/09/17 05:45:09;;;;;;;10.85;6.00;;;;;;;;;;5024726;28;20074;-62
2021/09/17 05:47:36;;;;;;;9.98;5.85;;;;;;;;;;5023871;28;20140;-63
2021/09/17 05:50:04;;;;;;;7.80;5.80;;;;;;;;;;5023918;28;20072;-63
2021/09/17 05:52:30;;;;;;;8.88;6.03;;;;;;;;;;5017811;28;20132;-63
2021/09/17 05:54:58;;;;;;;6.15;5.07;;;;;;;;;;5019819;28;20133;-63
2021/09/17 05:57:24;;;;;;;7.97;5.57;;;;;;;;;;5025229;28;20088;-63
2021/09/17 05:59:51;;;;;;;7.82;5.22;;;;;;;;;;5020854;28;20080;-63
2021/09/17 06:02:18;;;;;;;10.07;5.93;;;;;;;;;;5023748;28;20053;-63
2021/09/17 06:04:44;;;;;;;9.52;5.72;;;;;;;;;;5024226;28;20072;-63
2021/09/17 06:07:11;;;;;;;8.40;5.80;;;;;;;;;;5020702;28;20107;-63
2021/09/17 06:09:38;;;;;;;9.10;6.20;;;;;;;;;;5026739;28;20460;-63
2021/09/17 06:12:04;;;;;;;8.77;5.78;;;;;;;;;;5025746;28;20136;-63
2021/09/17 06:14:31;;;;;;;11.80;6.45;;;;;;;;;;5026813;28;20136;-63
2021/09/17 06:16:58;;;;;;;10.30;6.50;;;;;;;;;;5022027;28;20084;-62
2021/09/17 06:19:25;;;;;;;10.05;6.78;;;;;;;;;;5023816;28;20569;-63
2021/09/17 06:21:51;;;;;;;10.30;6.33;;;;;;;;;;5025718;28;20958;-63
2021/09/17 06:24:18;;;;;;;9.05;6.30;;;;;;;;;;5022907;28;20141;-63
2021/09/17 06:26:45;;;;;;;10.10;6.25;;;;;;;;;;5024169;28;20133;-63
2021/09/17 06:29:12;;;;;;;11.55;6.60;;;;;;;;;;5030606;28;20072;-63
2021/09/17 06:31:38;;;;;;;8.60;5.57;;;;;;;;;;5022124;28;20051;-63
2021/09/17 06:34:05;;;;;;;7.93;6.10;;;;;;;;;;5019932;28;20123;-62
2021/09/17 06:36:32;;;;;;;9.48;6.40;;;;;;;;;;5022526;28;20134;-63
2021/09/17 06:39:02;;;;;;;10.15;5.90;;;;;;;;;;5021036;28;20050;-62
2021/09/17 06:41:29;;;;;;;7.88;6.13;;;;;;;;;;5025308;28;20136;-63
2021/09/17 06:43:55;;;;;;;8.43;5.35;;;;;;;;;;5018233;28;20073;-63
2021/09/17 06:46:22;;;;;;;9.50;4.78;;;;;;;;;;5023852;28;20132;-63
2021/09/17 06:48:49;;;;;;;9.32;6.50;;;;;;;;;;5023276;28;20053;-62
2021/09/17 06:51:16;;;;;;;12.57;6.27;;;;;;;;;;5022175;28;20081;-63
2021/09/17 06:53:43;;;;;;;10.40;7.00;;;;;;;;;;5023589;28;20375;-62
2021/09/17 06:56:10;;;;;;;8.55;6.03;;;;;;;;;;5020763;28;20347;-63
2021/09/17 06:58:36;;;;;;;12.10;6.57;;;;;;;;;;5017739;28;20655;-62
2021/09/17 07:01:03;;;;;;;9.80;6.57;;;;;;;;;;5022152;28;20506;-63
2021/09/17 07:03:30;;;;;;;12.57;6.53;;;;;;;;;;5018724;28;20054;-63
2021/09/17 07:05:57;;;;;;;10.73;7.10;;;;;;;;;;5005330;28;20079;-63
2021/09/17 07:08:25;;;;;;;10.13;6.90;;;;;;;;;;5026815;28;20775;-62
2021/09/17 07:10:51;;;;;;;11.70;7.05;;;;;;;;;;5020693;28;20080;-63
2021/09/17 07:13:18;;;;;;;9.30;6.65;;;;;;;;;;5020875;28;20084;-63
2021/09/17 07:15:45;;;;;;;;;;;;;;;;;;5019592;28;20133;-63
2021/09/17 07:18:12;;;;;;;10.98;6.13;;;;;;;;;;5021984;28;19927;-62
2021/09/17 07:20:39;;;;;;;11.05;6.93;;;;;;;;;;5018930;28;20088;-63
2021/09/17 07:23:07;;;;;;;10.75;6.53;;;;;;;;;;5022799;28;20137;-63
2021/09/17 07:25:34;;;;;;;11.25;6.70;;;;;;;;;;5022305;28;20413;-63
2021/09/17 07:28:01;;;;;;;11.70;7.43;;;;;;;;;;5026306;28;20080;-63
2021/09/17 07:30:28;;;;;;;8.98;6.53;;;;;;;;;;5026919;28;20042;-63
2021/09/17 07:32:54;;;;;;;13.40;7.10;;;;;;;;;;5030043;28;20088;-63
2021/09/17 07:35:21;;;;;;;12.05;7.18;;;;;;;;;;5026909;28;20104;-63
2021/09/17 07:37:48;;;;;;;9.25;6.57;;;;;;;;;;5016128;28;20133;-63
2021/09/17 07:40:15;;;;;;;8.60;6.72;;;;;;;;;;5029711;28;20061;-63
2021/09/17 07:42:42;;;;;;;10.20;6.57;;;;;;;;;;5027712;28;20148;-63
2021/09/17 07:45:10;;;;;;;10.65;7.28;;;;;;;;;;5026489;28;20132;-63
2021/09/17 07:47:36;;;;;;;10.30;6.30;;;;;;;;;;5023649;28;20050;-63
2021/09/17 07:50:03;;;;;;;10.77;6.60;;;;;;;;;;5016064;28;20581;-63
2021/09/17 07:52:30;;;;;;;9.32;6.88;;;;;;;;;;5020949;28;20051;-63
2021/09/17 07:54:57;;;;;;;8.73;6.82;;;;;;;;;;5024850;28;20072;-63
2021/09/17 07:57:24;;;;;;;9.80;7.07;;;;;;;;;;5022626;28;20092;-63
2021/09/17 07:59:50;;;;;;;8.20;6.43;;;;;;;;;;5022575;28;20099;-63
2021/09/17 08:02:17;;;;;;;8.30;6.68;;;;;;;;;;5022914;28;20088;-63
2021/09/17 08:04:44;;;;;;;8.40;6.65;;;;;;;;;;5030757;28;20051;-63
2021/09/17 08:07:10;;;;;;;9.48;7.20;;;;;;;;;;5022148;28;20482;-63
2021/09/17 08:09:37;;;;;;;9.32;6.15;;;;;;;;;;5021570;28;20590;-63
2021/09/17 08:12:04;;;;;;;8.80;6.43;;;;;;;;;;5021478;28;20604;-63
2021/09/17 08:14:30;;;;;;;9.85;7.07;;;;;;;;;;5028023;28;20140;-63
2021/09/17 08:16:57;;;;;;;12.32;6.82;;;;;;;;;;5026302;28;20084;-63
2021/09/17 08:19:24;;;;;;;12.73;6.97;;;;;;;;;;5021783;28;20521;-63
2021/09/17 08:21:51;;;;;;;9.15;6.18;;;;;;;;;;5019403;28;20137;-63
2021/09/17 08:24:18;;;;;;;8.88;6.50;;;;;;;;;;5018900;28;20136;-63
2021/09/17 08:26:49;;;;;;;9.35;6.80;;;;;;;;;;5023516;28;20054;-63
2021/09/17 08:29:16;;;;;;;11.38;6.72;;;;;;;;;;5025191;28;20100;-64
2021/09/17 08:31:43;;;;;;;8.87;6.40;;;;;;;;;;5018732;28;20456;-63
2021/09/17 08:34:09;;;;;;;9.55;6.47;;;;;;;;;;5025000;28;20084;-63
2021/09/17 08:36:37;;;;;;;10.82;6.93;;;;;;;;;;5020175;28;20053;-63
2021/09/17 08:39:04;;;;;;;9.05;7.25;;;;;;;;;;5024644;28;20144;-63
2021/09/17 08:41:31;;;;;;;11.70;6.47;;;;;;;;;;5020615;28;20073;-63
2021/09/17 08:43:58;;;;;;;8.82;6.95;;;;;;;;;;5021195;28;20484;-63
2021/09/17 08:46:25;;;;;;;9.10;6.55;;;;;;;;;;5022084;28;20069;-63
2021/09/17 08:48:51;;;;;;;9.77;6.68;;;;;;;;;;5023717;28;20060;-63
2021/09/17 08:51:19;;;;;;;12.32;7.25;;;;;;;;;;5023786;28;20046;-63
2021/09/17 08:53:46;;;;;;;9.57;7.10;;;;;;;;;;5024546;28;20089;-63
2021/09/17 08:56:15;;;;;;;11.05;6.90;;;;;;;;;;5023714;28;20073;-63
2021/09/17 08:58:43;;;;;;;12.45;7.05;;;;;;;;;;5022380;28;20140;-62
2021/09/17 09:01:29;;;;;;;10.07;6.38;;;;;;;;;;5020270;28;20136;-62
2021/09/17 09:03:59;;;;;;;10.75;6.95;;;;;;;;;;5012818;28;20057;-62
2021/09/17 09:06:27;;;;;;;10.35;7.63;;;;;;;;;;5023222;28;20103;-62
2021/09/17 09:08:55;;;;;;;11.27;7.10;;;;;;;;;;5020066;28;20152;-62
2021/09/17 09:11:25;;;;;;;9.63;6.75;;;;;;;;;;5016798;28;20065;-62
2021/09/17 09:14:11;;;;;;;10.18;7.25;;;;;;;;;;5024327;28;20509;-62
2021/09/17 09:16:42;;;;;;;14.00;7.05;;;;;;;;;;5023841;28;20105;-62
2021/09/17 09:19:24;;;;;;;10.80;6.90;;;;;;;;;;5024804;28;20057;-62
2021/09/17 09:21:53;;;;;;;12.32;7.05;;;;;;;;;;5026431;28;20099;-63
2021/09/17 09:24:23;;;;;;;9.32;7.07;;;;;;;;;;5022169;28;20176;-62
2021/09/17 09:27:08;;;;;;;10.55;6.93;;;;;;;;;;5016539;28;20054;-62
2021/09/17 09:29:36;;;;;;;10.68;6.88;;;;;;;;;;5018603;28;20592;-63
2021/09/17 09:32:02;;;;;;;10.30;6.95;;;;;;;;;;5020863;28;20170;-62
2021/09/17 09:34:48;;;;;;;10.45;6.40;;;;;;;;;;5026992;28;20472;-63
2021/09/17 09:37:16;;;;;;;8.07;6.13;;;;;;;;;;5025387;28;20100;-62
2021/09/17 09:39:57;;;;;;;8.93;6.38;;;;;;;;;;5018423;28;20140;-62
2021/09/17 09:42:31;;;;;;;15.52;6.40;;;;;;;;;;5023095;28;20457;-62
2021/09/17 09:45:28;;;;;;;8.40;5.72;;;;;;;;;;5020844;28;20185;-62
2021/09/17 09:47:56;;;;;;;9.63;5.90;;;;;;;;;;5014704;28;20477;-62
2021/09/17 09:50:26;;;;;;;8.20;6.00;;;;;;;;;;5026602;28;20107;-62
2021/09/17 09:52:54;;;;;;;8.25;6.13;;;;;;;;;;5022733;28;20312;-62
2021/09/17 09:55:21;;;;;;;10.90;6.30;;;;;;;;;;5016949;28;20216;-62
2021/09/17 09:57:48;;;;;;;7.75;5.97;;;;;;;;;;5021453;28;20070;-62
2021/09/17 10:00:15;;;;;;;7.30;6.10;;;;;;;;;;5023319;28;20476;-62
2021/09/17 10:02:43;;;;;;;7.05;5.80;;;;;;;;;;5022957;28;20132;-62
2021/09/17 10:05:12;;;;;;;6.85;5.88;;;;;;;;;;5020697;28;20060;-62
2021/09/17 10:07:39;;;;;;;7.17;6.10;;;;;;;;;;4956447;28;1947175;-63
2021/09/17 10:10:08;;;;;;;9.53;6.37;;;;;;;;;;5024164;28;20136;-62
2021/09/17 10:12:35;;;;;;;9.75;6.80;;;;;;;;;;5017346;28;20065;-62
2021/09/17 10:15:02;;;;;;;7.65;5.90;;;;;;;;;;5023713;28;20120;-62
2021/09/17 10:17:30;;;;;;;8.82;6.53;;;;;;;;;;5018022;28;20128;-62
2021/09/17 10:19:57;;;;;;;7.57;6.45;;;;;;;;;;5016810;28;20081;-62
2021/09/17 10:22:40;;;;;;;10.50;6.40;;;;;;;;;;5014405;28;20121;-62
2021/09/17 10:25:12;;;;;;;8.95;6.38;;;;;;;;;;5021159;28;20128;-62
2021/09/17 10:27:40;;;;;;;8.75;5.25;;;;;;;;;;5004833;28;20077;-63
2021/09/17 10:30:09;;;;;;;8.40;6.30;;;;;;;;;;5022144;28;20513;-62
2021/09/17 10:32:56;;;;;;;7.32;5.50;;;;;;;;;;5025060;28;20132;-62
2021/09/17 10:35:24;;;;;;;8.82;6.40;;;;;;;;;;5018427;28;20171;-62
2021/09/17 10:37:53;;;;;;;8.25;6.15;;;;;;;;;;5023191;28;20056;-62
2021/09/17 10:40:32;;;;;;;7.50;6.50;;;;;;;;;;5020266;28;20145;-62
2021/09/17 10:43:22;;;;;;;10.30;7.00;;;;;;;;;;5025841;28;20104;-62
2021/09/17 10:45:50;;;;;;;10.52;6.35;;;;;;;;;;5014943;28;20074;-62
2021/09/17 10:48:25;;;;;;;12.75;7.15;;;;;;;;;;5022348;28;20167;-62
2021/09/17 10:50:53;;;;;;;10.05;6.75;;;;;;;;;;5025627;28;20075;-62
2021/09/17 10:53:39;;;;;;;8.38;6.30;;;;;;;;;;5021185;28;20158;-62
2021/09/17 10:56:12;;;;;;;10.20;7.22;;;;;;;;;;5023054;28;20096;-62
2021/09/17 10:58:42;;;;;;;10.77;6.35;;;;;;;;;;5025620;28;20493;-62
2021/09/17 11:01:10;;;;;;;10.30;6.95;;;;;;;;;;5012772;28;20477;-62
2021/09/17 11:03:37;;;;;;;9.25;7.07;;;;;;;;;;5041419;28;20053;-62
2021/09/17 11:06:18;;;;;;;8.85;6.88;;;;;;;;;;5021748;28;20050;-62
2021/09/17 11:08:52;;;;;;;8.20;6.97;;;;;;;;;;5028822;28;20498;-62
2021/09/17 11:11:28;;;;;;;9.85;6.82;;;;;;;;;;5023445;28;20050;-62
2021/09/17 11:13:59;;;;;;;9.75;6.95;;;;;;;;;;5026728;28;20056;-62
2021/09/17 11:16:27;;;;;;;8.93;6.75;;;;;;;;;;5024193;28;20080;-62
2021/09/17 11:18:54;;;;;;;12.48;7.30;;;;;;;;;;5022492;28;20509;-62
2021/09/17 11:21:20;;;;;;;13.30;7.88;;;;;;;;;;5026715;28;20442;-62
2021/09/17 11:23:53;;;;;;;9.55;7.22;;;;;;;;;;5025083;28;20497;-62
2021/09/17 11:26:21;;;;;;;9.75;7.50;;;;;;;;;;5022337;28;20080;-62
2021/09/17 11:29:00;;;;;;;10.02;6.93;;;;;;;;;;5026807;28;20153;-62
2021/09/17 11:31:31;;;;;;;11.68;7.20;;;;;;;;;;5029479;28;20069;-62
2021/09/17 11:33:59;;;;;;;15.35;7.10;;;;;;;;;;5022934;28;20057;-62
2021/09/17 11:36:45;;;;;;;13.30;6.90;;;;;;;;;;5024284;28;20133;-62
2021/09/17 11:39:15;;;;;;;9.63;7.30;;;;;;;;;;5025262;28;20128;-62
2021/09/17 11:41:42;;;;;;;8.73;7.10;;;;;;;;;;5022478;28;20133;-62
2021/09/17 11:44:09;;;;;;;9.55;6.40;;;;;;;;;;5023284;28;20128;-62
2021/09/17 11:46:37;;;;;;;9.48;7.30;;;;;;;;;;5023234;28;20104;-62
2021/09/17 11:49:03;;;;;;;8.65;6.20;;;;;;;;;;5028129;28;20050;-61
2021/09/17 11:51:30;;;;;;;9.98;6.63;;;;;;;;;;5028410;28;20786;-62
2021/09/17 11:53:57;;;;;;;8.57;6.53;;;;;;;;;;5027842;28;20224;-62
2021/09/17 11:56:23;;;;;;;9.52;6.78;;;;;;;;;;5024366;28;20134;-62
2021/09/17 11:58:50;;;;;;;9.10;6.32;;;;;;;;;;5026385;28;20085;-62
2021/09/17 12:01:22;;;;;;;9.82;6.53;;;;;;;;;;5027834;28;20092;-61
2021/09/17 12:03:50;;;;;;;10.07;6.72;;;;;;;;;;5030817;28;20042;-62
2021/09/17 12:06:17;;;;;;;9.93;6.63;;;;;;;;;;5027539;28;20065;-62
2021/09/17 12:08:45;;;;;;;8.65;6.30;;;;;;;;;;5025101;28;20057;-62
2021/09/17 12:11:17;;;;;;;7.43;6.03;;;;;;;;;;5022562;28;20432;-61
2021/09/17 12:13:46;;;;;;;7.43;5.55;;;;;;;;;;5031827;28;20371;-61
2021/09/17 12:16:12;;;;;;;8.50;6.38;;;;;;;;;;5020550;28;20145;-62
2021/09/17 12:18:39;;;;;;;10.98;6.22;;;;;;;;;;5023264;28;20041;-61
2021/09/17 12:21:06;;;;;;;8.77;6.07;;;;;;;;;;5025537;28;20085;-61
2021/09/17 12:23:53;;;;;;;8.18;5.63;;;;;;;;;;5027148;28;20054;-61
2021/09/17 12:26:19;;;;;;;6.13;5.30;;;;;;;;;;5024680;28;20136;-61
2021/09/17 12:28:47;;;;;;;9.50;5.95;;;;;;;;;;5024221;28;20087;-61
2021/09/17 12:31:13;;;;;;;;;;;;;;;;;;5019304;28;20141;-61
2021/09/17 12:33:40;;;;;;;9.95;5.68;;;;;;;;;;5027223;28;20327;-61
2021/09/17 12:36:13;;;;;;;12.02;5.60;;;;;;;;;;5025661;28;20141;-61
2021/09/17 12:38:40;;;;;;;10.57;5.72;;;;;;;;;;5023785;28;20084;-61
2021/09/17 12:41:11;;;;;;;12.32;6.25;;;;;;;;;;5025089;28;20396;-61
2021/09/17 12:44:07;;;;;;;9.95;5.78;;;;;;;;;;5027437;28;20045;-61
2021/09/17 12:46:35;;;;;;;9.23;5.75;;;;;;;;;;5026776;28;20049;-61
2021/09/17 12:49:02;;;;;;;6.22;5.07;;;;;;;;;;5023482;28;20128;-61
2021/09/17 12:51:29;;;;;;;7.63;5.55;;;;;;;;;;5021855;28;20085;-62
2021/09/17 12:53:58;;;;;;;7.57;5.60;;;;;;;;;;5022576;28;20082;-61
2021/09/17 12:56:25;;;;;;;6.38;5.05;;;;;;;;;;5020779;28;20518;-61
2021/09/17 12:59:08;;;;;;;6.43;5.22;;;;;;;;;;5022286;28;20544;-61
2021/09/17 13:01:36;;;;;;;8.50;4.93;;;;;;;;;;5023789;28;20133;-61
2021/09/17 13:04:03;;;;;;;7.85;5.40;;;;;;;;;;5023707;28;20064;-61
2021/09/17 13:06:30;;;;;;;9.18;5.40;;;;;;;;;;5026573;28;20064;-61
2021/09/17 13:08:58;;;;;;;9.30;5.50;;;;;;;;;;5025458;28;20144;-61
2021/09/17 13:11:24;;;;;;;8.60;5.68;;;;;;;;;;5020820;28;20042;-61
2021/09/17 13:13:51;;;;;;;7.47;5.20;;;;;;;;;;5024906;28;20128;-61
2021/09/17 13:16:19;;;;;;;5.93;5.00;;;;;;;;;;5020471;28;20103;-61
2021/09/17 13:18:46;;;;;;;6.43;4.80;;;;;;;;;;5025006;28;20044;-61
2021/09/17 13:21:16;;;;;;;6.13;4.93;;;;;;;;;;5015811;28;20085;-61
2021/09/17 13:23:44;;;;;;;6.07;4.80;;;;;;;;;;5020524;28;20077;-61
2021/09/17 13:26:10;;;;;;;9.23;5.60;;;;;;;;;;5021034;28;20087;-61
2021/09/17 13:28:37;;;;;;;6.78;4.88;;;;;;;;;;5022488;28;20037;-61
2021/09/17 13:31:04;;;;;;;6.93;5.45;;;;;;;;;;5022930;28;20409;-61
2021/09/17 13:33:30;;;;;;;5.63;4.93;;;;;;;;;;5017822;28;20053;-61
2021/09/17 13:35:57;;;;;;;7.75;5.30;;;;;;;;;;5024659;28;20496;-61
2021/09/17 13:38:23;;;;;;;6.83;5.20;;;;;;;;;;5023909;28;20046;-61
2021/09/17 13:40:51;;;;;;;6.95;5.05;;;;;;;;;;5023395;28;20474;-61
2021/09/17 13:43:17;;;;;;;7.47;5.25;;;;;;;;;;5022823;28;20132;-60
2021/09/17 13:45:44;;;;;;;8.57;5.15;;;;;;;;;;5028572;28;20129;-61
2021/09/17 13:48:10;;;;;;;9.60;5.50;;;;;;;;;;5017335;28;20462;-60
2021/09/17 13:50:37;;;;;;;8.18;5.40;;;;;;;;;;5020722;28;20085;-61
2021/09/17 13:53:04;;;;;;;8.53;5.37;;;;;;;;;;5022652;28;20128;-61
2021/09/17 13:55:35;;;;;;;7.75;5.50;;;;;;;;;;5019874;28;20089;-61
2021/09/17 13:58:02;;;;;;;7.13;5.13;;;;;;;;;;5024473;28;20375;-60
2021/09/17 14:00:30;;;;;;;;;;;;;;;;;;5025048;28;20562;-61
2021/09/17 14:02:57;;;;;;;10.48;5.43;;;;;;;;;;5020047;28;20355;-61
2021/09/17 14:05:24;;;;;;;6.95;5.18;;;;;;;;;;5018243;28;20077;-61
2021/09/17 14:07:51;;;;;;;16.13;6.10;;;;;;;;;;5019188;28;20935;-61
2021/09/17 14:10:18;;;;;;;7.90;5.60;;;;;;;;;;5022359;28;20613;-61
2021/09/17 14:12:44;;;;;;;12.52;5.03;;;;;;;;;;5022337;28;20053;-61
2021/09/17 14:15:11;;;;;;;9.52;5.63;;;;;;;;;;5018164;28;20129;-61
2021/09/17 14:17:38;;;;;;;7.85;5.22;;;;;;;;;;5015687;28;20065;-61
2021/09/17 14:20:04;;;;;;;8.40;5.05;;;;;;;;;;5024777;28;20132;-61
2021/09/17 14:22:31;;;;;;;8.48;5.18;;;;;;;;;;5026707;28;20137;-61
2021/09/17 14:24:58;;;;;;;7.32;5.45;;;;;;;;;;5020642;28;20050;-61
2021/09/17 14:27:25;;;;;;;9.65;5.80;;;;;;;;;;5024710;28;20124;-60
2021/09/17 14:29:52;;;;;;;10.40;5.78;;;;;;;;;;5019648;28;20553;-61
2021/09/17 14:32:18;;;;;;;6.88;5.70;;;;;;;;;;5018729;28;20081;-60
2021/09/17 14:34:45;;;;;;;9.00;5.00;;;;;;;;;;5026511;28;20141;-61
2021/09/17 14:37:12;;;;;;;13.38;5.40;;;;;;;;;;5020208;28;20050;-61
2021/09/17 14:39:38;;;;;;;7.15;5.80;;;;;;;;;;5018392;28;20544;-61
2021/09/17 14:42:05;;;;;;;7.32;5.50;;;;;;;;;;5019089;28;20049;-61
2021/09/17 14:44:32;;;;;;;9.38;5.60;;;;;;;;;;5024704;28;20125;-61